Duncans Mills, CA

3:47 PM PDT on May 24, 2015 (GMT -0700)
Sonoma County | | Change Station
CLOSE
Current Station
Airport
Location: Santa Rosa,
Elevation: 125 ft
Nearby Weather Stations

Elev 125 ft 38.50 °N, 122.81 °W | Updated 54 minutes ago

Clear
Clear
73 °F
Feels Like 73 °F
N
12
Wind Variable Wind from South
Gusts 21 mph

Today
High -- | Low -- °F
--% Chance of Precip.
Yesterday
High -- | Low -- °F
Precip. -- in
5:54 AM 8:24 PM
Waxing Crescent, 43% visible
Pressure 29.92 in
Visibility 10.0 miles
Clouds Few 6000 ft
Dew Point 51 °F
Humidity 46%
Rainfall 0.00 in
Snow Depth Not available.
UV 9 out of 12
Pollen 6.00 out of 12
Air Quality Not available.
Flu Activity Sporadic
METAR KSTS 242153Z 19010G18KT 10SM FEW060 23/11 A2993 RMK AO2 SLP130 T02280106

More Conditions Fewer Conditions

Pressure 29.92 in
Visibility 10.0 miles
Clouds Few 6000 ft
Dew Point 51 °F
Humidity 46%
Rainfall 0.00 in
Snow Depth Not available.
UV 9 out of 12
Pollen 6.00 out of 12
Air Quality Not available.
Flu Activity Sporadic
METAR KSTS 242153Z 19010G18KT 10SM FEW060 23/11 A2993 RMK AO2 SLP130 T02280106

More Conditions Fewer Conditions

10-Day Weather Forecast

Almanac

Astronomy

May. 24, 2015 Rise Set
Actual Time
Civil Twilight
Nautical Twilight
Astronomical Twilight
Moon
Length of Visible Light
Length of Day
Tomorrow will be .
, % of the Moon is Illuminated

Today's Extremes

State Highs State Lows

Community

WunderPhotos

Upload Photos

1,823,885 photos uploaded!

WunderBlogs® & News

Nearby

Air Quality

  Air Quality AQ Index Pollutant
Not available.

Snow Depth

Station Depth Elevation

Earthquake Activity

City Distance Mag. Time & Date
Minimum magnitude displayed is 2.5.

Coastal Water Temperatures

Place Temperature

Stations

Nearby Weather Stations

Station Location Temp. Windchill Dew Point Humidity Wind Precip. Elev Updated Type